Time;durP1;ratioP1;P1;durP2;ratioP2;P2;SDS_P1;SDS_P2;PMS_P1;PMS_P2;Temp;Humidity;BMP_temperature;BMP_pressure;BME280_temperature;BME280_humidity;BME280_pressure;Samples;Min_cycle;Max_cycle;Signal;HPM_P1;HPM_P2
2021/05/12 00:00:54;;;;;;;10.55;6.10;;;15.30;99.90;;;15.12;57.53;100869.78;4844757;29;20053;-70
2021/05/12 00:03:27;;;;;;;10.32;5.68;;;15.30;99.90;;;15.57;57.50;100946.97;4844596;29;20491;-70
2021/05/12 00:05:54;;;;;;;10.23;5.43;;;15.30;99.90;;;15.55;57.37;100952.34;4844725;29;20077;-70
2021/05/12 00:08:24;;;;;;;12.68;6.07;;;15.20;99.90;;;15.46;57.24;100959.69;4844598;29;20045;-70
2021/05/12 00:10:52;;;;;;;8.67;5.17;;;15.20;99.90;;;15.43;57.22;100951.75;4844628;29;20085;-70
2021/05/12 00:13:24;;;;;;;8.75;5.72;;;15.10;99.90;;;15.29;57.49;100923.56;4844602;29;20298;-70
2021/05/12 00:15:52;;;;;;;;;;;15.10;99.90;;;15.43;57.58;100962.44;4845128;29;20046;-70
2021/05/12 00:18:21;;;;;;;12.73;6.20;;;15.10;99.90;;;15.45;57.61;100947.28;4844433;29;19925;-72
2021/05/12 00:20:51;;;;;;;11.73;6.60;;;15.10;99.90;;;15.43;57.88;100941.94;4844575;29;20069;-70
2021/05/12 00:23:22;;;;;;;10.30;6.90;;;15.10;99.90;;;15.44;57.85;100945.50;4844735;29;20087;-70
2021/05/12 00:25:50;;;;;;;10.90;6.65;;;15.10;99.90;;;15.46;57.88;100949.91;4827913;29;20050;-70
2021/05/12 00:28:18;;;;;;;11.60;7.15;;;15.10;99.90;;;15.50;57.97;100950.69;4828007;29;20588;-70
2021/05/12 00:30:46;;;;;;;13.32;6.97;;;15.10;99.90;;;15.47;57.99;100948.97;4844506;29;20110;-70
2021/05/12 00:33:15;;;;;;;11.70;6.85;;;15.10;99.90;;;14.81;58.16;100828.78;4827613;29;20081;-70
2021/05/12 00:35:43;;;;;;;10.20;6.25;;;15.10;99.90;;;15.41;58.40;100934.91;4844135;29;20057;-70
2021/05/12 00:38:12;;;;;;;8.65;6.50;;;15.10;99.90;;;15.42;58.69;100942.00;4844086;29;20473;-70
2021/05/12 00:40:40;;;;;;;12.25;6.80;;;15.10;99.90;;;15.26;58.96;100915.66;4844069;29;20515;-70
2021/05/12 00:43:08;;;;;;;12.27;6.65;;;15.00;99.90;;;15.37;59.04;100939.41;4843741;29;20058;-69
2021/05/12 00:45:36;;;;;;;12.30;5.95;;;15.00;99.90;;;15.35;59.05;100935.88;4844045;29;20157;-70
2021/05/12 00:48:06;;;;;;;11.20;6.35;;;15.00;99.90;;;15.24;59.15;100917.50;4827532;29;20066;-70
2021/05/12 00:50:34;;;;;;;10.90;6.15;;;15.00;99.90;;;15.28;59.10;100943.16;4827558;29;20054;-70
2021/05/12 00:53:02;;;;;;;11.32;6.03;;;15.00;99.90;;;15.31;59.18;100945.75;4844203;29;20094;-69
2021/05/12 00:55:31;;;;;;;8.35;6.30;;;15.00;99.90;;;15.26;59.57;100946.75;4827315;29;20416;-70
2021/05/12 00:58:00;;;;;;;10.85;6.20;;;14.90;99.90;;;15.19;59.78;100954.00;4827445;29;20389;-70
2021/05/12 01:00:29;;;;;;;12.65;6.15;;;14.90;99.90;;;15.18;59.98;100946.06;4827448;29;20110;-70
2021/05/12 01:02:57;;;;;;;11.02;6.60;;;14.80;99.90;;;15.21;60.11;100949.50;4843909;29;20038;-70
2021/05/12 01:05:41;;;;;;;10.43;6.40;;;14.80;99.90;;;15.20;60.39;100953.09;4843569;29;20050;-70
2021/05/12 01:08:09;;;;;;;12.15;6.60;;;14.90;99.90;;;15.11;60.72;100937.34;4843719;29;20053;-70
2021/05/12 01:10:38;;;;;;;9.55;6.18;;;14.80;99.90;;;15.24;60.83;100957.47;4843479;29;20073;-70
2021/05/12 01:13:06;;;;;;;10.82;6.05;;;14.80;99.90;;;15.26;61.32;100952.97;4843677;29;20420;-70
2021/05/12 01:15:34;;;;;;;11.85;6.10;;;14.90;99.90;;;15.21;61.88;100946.84;4843646;29;20381;-70
2021/05/12 01:18:10;;;;;;;13.23;6.57;;;14.80;99.90;;;15.21;62.02;100949.50;4843507;29;20076;-70
2021/05/12 01:20:58;;;;;;;10.35;5.68;;;14.90;99.90;;;15.16;62.62;100954.09;4843491;29;20057;-70
2021/05/12 01:23:28;;;;;;;9.95;5.68;;;14.80;99.90;;;15.19;62.99;100962.00;4843343;29;20054;-70
2021/05/12 01:25:58;;;;;;;10.65;5.53;;;14.80;99.90;;;15.04;63.46;100961.47;4843776;29;20412;-70
2021/05/12 01:28:29;;;;;;;12.55;6.50;;;14.70;99.90;;;14.89;64.03;100965.31;4843336;29;20054;-70
2021/05/12 01:30:59;;;;;;;11.07;6.20;;;14.60;99.90;;;14.94;64.09;100967.91;4826946;29;20517;-70
2021/05/12 01:33:28;;;;;;;14.07;6.30;;;14.50;99.90;;;14.84;64.17;100969.00;4843192;29;20046;-70
2021/05/12 01:35:58;;;;;;;13.48;6.88;;;14.50;99.90;;;14.67;64.98;100976.44;4843174;29;20073;-70
2021/05/12 01:38:28;;;;;;;12.30;6.43;;;14.30;99.90;;;14.63;65.18;100970.31;4843258;29;20058;-70
2021/05/12 01:40:58;;;;;;;10.82;6.18;;;14.30;99.90;;;14.60;65.46;100975.66;4843103;29;20495;-70
2021/05/12 01:43:25;;;;;;;12.93;6.47;;;14.20;99.90;;;14.57;65.43;100972.19;4826445;29;20069;-70
2021/05/12 01:45:53;;;;;;;11.63;6.78;;;14.20;99.90;;;14.60;65.23;100978.31;4842932;29;20057;-70
2021/05/12 01:48:21;;;;;;;10.50;6.97;;;14.20;99.90;;;14.60;64.96;100981.00;4843159;29;20058;-69
2021/05/12 01:50:49;;;;;;;9.75;6.80;;;14.20;99.90;;;14.62;64.84;100980.97;4842381;29;20259;-70
2021/05/12 01:53:19;;;;;;;13.02;7.13;;;14.20;99.90;;;14.64;64.90;100979.16;4826506;29;20058;-69
2021/05/12 01:55:47;;;;;;;11.57;6.70;;;14.20;99.90;;;14.67;64.49;100989.75;4826590;29;20060;-70
2021/05/12 01:58:15;;;;;;;11.48;6.55;;;14.30;99.90;;;14.48;64.57;100957.25;4842808;29;20120;-69
2021/05/12 02:00:45;;;;;;;12.40;6.88;;;14.30;99.90;;;14.44;64.13;100960.88;4842681;29;20102;-70
2021/05/12 02:03:14;;;;;;;13.00;6.32;;;14.20;99.90;;;14.57;63.45;100972.19;4842938;29;20045;-70
2021/05/12 02:05:43;;;;;;;15.43;6.78;;;14.20;99.90;;;14.59;63.83;100983.69;4842610;29;20417;-70
2021/05/12 02:08:13;;;;;;;9.55;7.35;;;14.20;99.90;;;14.56;63.81;100975.75;4842799;29;20046;-70
2021/05/12 02:10:43;;;;;;;;;;;14.20;99.90;;;14.47;63.88;100968.84;4826847;29;20077;-70
2021/05/12 02:13:13;;;;;;;10.50;7.22;;;14.20;99.90;;;14.47;63.91;100971.50;4842475;29;19932;-69
2021/05/12 02:15:42;;;;;;;14.20;7.35;;;14.20;99.90;;;14.50;64.05;100965.25;4842456;29;20049;-70
2021/05/12 02:18:10;;;;;;;17.05;8.05;;;14.10;99.90;;;14.55;63.86;100966.03;4842806;29;20569;-70
2021/05/12 02:20:39;;;;;;;15.32;8.10;;;14.20;99.90;;;14.52;64.19;100966.09;4842467;29;20077;-70
2021/05/12 02:23:12;;;;;;;12.93;9.75;;;14.10;99.90;;;14.46;64.43;100957.28;4842350;29;20050;-70
2021/05/12 02:25:40;;;;;;;16.98;9.68;;;14.20;99.90;;;14.45;64.47;100946.69;4842294;29;20049;-70
2021/05/12 02:28:10;;;;;;;17.77;10.10;;;14.20;99.90;;;14.45;65.02;100938.69;4842502;29;20081;-70
2021/05/12 02:30:39;;;;;;;17.73;10.70;;;14.20;99.90;;;14.60;65.21;100953.47;4842432;29;20106;-70
2021/05/12 02:33:08;;;;;;;17.95;10.90;;;14.20;99.90;;;14.60;65.28;100946.38;4842153;29;20465;-70
2021/05/12 02:35:36;;;;;;;19.35;10.90;;;14.30;99.90;;;14.58;65.31;100950.84;4842199;29;20057;-70
2021/05/12 02:38:05;;;;;;;17.58;11.02;;;14.30;99.90;;;14.57;65.70;100951.78;4842082;29;20095;-70
2021/05/12 02:40:33;;;;;;;20.25;12.35;;;14.30;99.90;;;14.55;65.72;100948.28;4842314;29;20053;-70
2021/05/12 02:43:02;;;;;;;19.35;12.40;;;14.20;99.90;;;14.60;66.22;100949.03;4841942;29;20081;-68
2021/05/12 02:45:32;;;;;;;21.08;13.73;;;14.20;99.90;;;14.60;66.18;100942.84;4825880;29;20054;-70
2021/05/12 02:48:02;;;;;;;20.30;12.88;;;14.30;99.90;;;14.67;66.27;100945.38;4825808;29;20053;-70
2021/05/12 02:50:34;;;;;;;19.75;12.43;;;14.30;99.90;;;14.63;66.69;100949.00;4841836;29;20516;-70
2021/05/12 02:53:03;;;;;;;20.50;12.90;;;14.30;99.90;;;14.52;66.75;100953.63;4842053;29;20061;-70
2021/05/12 02:55:32;;;;;;;17.55;12.25;;;14.20;99.90;;;13.80;67.15;100832.63;4842103;29;20046;-70
2021/05/12 02:58:00;;;;;;;20.23;13.23;;;14.20;99.90;;;14.30;67.44;100928.34;4842065;29;20061;-70
2021/05/12 03:00:30;;;;;;;25.40;14.98;;;14.10;99.90;;;14.41;67.55;100979.59;4842004;29;20124;-70
2021/05/12 03:02:58;;;;;;;17.85;13.23;;;14.10;99.90;;;14.37;67.85;100957.47;4846357;29;20182;-70
2021/05/12 03:05:29;;;;;;;21.35;15.13;;;14.10;99.90;;;14.44;68.05;100963.53;4848431;29;20465;-70
2021/05/12 03:07:57;;;;;;;20.15;14.88;;;14.10;99.90;;;14.42;68.04;100954.72;4848203;29;20083;-70
2021/05/12 03:10:25;;;;;;;23.50;15.88;;;14.10;99.90;;;14.49;68.30;100959.03;4848119;29;20224;-70
2021/05/12 03:12:53;;;;;;;21.15;14.85;;;14.10;99.90;;;14.46;68.09;100953.75;4831530;29;20053;-70
2021/05/12 03:15:25;;;;;;;23.05;16.10;;;14.20;99.90;;;14.59;68.25;100965.06;4847977;29;20112;-70
2021/05/12 03:17:56;;;;;;;22.42;15.68;;;14.20;99.90;;;14.56;68.13;100957.13;4848091;29;20050;-70
2021/05/12 03:20:26;;;;;;;24.90;16.60;;;14.20;99.90;;;14.58;68.25;100961.50;4848373;29;20049;-70
2021/05/12 03:22:55;;;;;;;26.48;16.27;;;14.20;99.90;;;14.54;68.54;100958.97;4831440;29;20454;-70
2021/05/12 03:25:24;;;;;;;24.33;17.15;;;14.20;99.90;;;14.52;68.65;100960.78;4847911;29;20046;-70
2021/05/12 03:27:53;;;;;;;23.92;16.70;;;14.20;99.90;;;14.51;68.62;100965.22;4847816;29;20058;-70
2021/05/12 03:30:24;;;;;;;27.25;18.23;;;14.20;99.90;;;13.96;68.53;100865.97;4847753;29;20073;-70
2021/05/12 03:32:53;;;;;;;24.50;16.85;;;14.20;99.90;;;14.48;68.42;100967.91;4831388;29;20058;-70
2021/05/12 03:35:21;;;;;;;23.67;18.08;;;14.10;99.90;;;14.43;68.70;100969.78;4847917;29;20077;-70
2021/05/12 03:37:49;;;;;;;24.30;17.15;;;14.10;99.90;;;14.42;68.75;100979.56;4847753;29;20061;-70
2021/05/12 03:40:18;;;;;;;24.20;17.80;;;14.10;99.90;;;14.38;69.02;100990.31;4831247;29;20046;-70
2021/05/12 03:42:46;;;;;;;25.02;17.95;;;14.00;99.90;;;14.39;69.17;100982.28;4831009;29;20054;-70
2021/05/12 03:45:15;;;;;;;26.08;17.40;;;14.00;99.90;;;14.19;69.47;100972.84;4847725;29;20066;-70
2021/05/12 03:47:47;;;;;;;27.67;18.63;;;14.00;99.90;;;14.35;69.51;100990.34;4847771;29;20057;-70
2021/05/12 03:50:17;;;;;;;23.52;16.95;;;14.00;99.90;;;14.35;69.62;100985.91;4847682;29;20046;-70
2021/05/12 03:52:46;;;;;;;22.45;17.85;;;14.00;99.90;;;14.37;69.51;101004.50;4847667;29;20504;-70
2021/05/12 03:55:15;;;;;;;19.90;16.13;;;14.00;99.90;;;14.35;69.33;100991.22;4847481;29;20385;-70
2021/05/12 03:57:44;;;;;;;22.95;16.30;;;14.00;99.90;;;14.30;69.56;101003.72;4831206;29;20054;-70
2021/05/12 04:00:14;;;;;;;22.80;13.52;;;13.90;99.90;;;14.24;69.40;100997.59;4847836;29;20054;-71
2021/05/12 04:02:45;;;;;;;21.70;12.75;;;13.90;99.90;;;14.21;69.37;101002.97;4847661;29;20507;-71
2021/05/12 04:05:16;;;;;;;24.20;10.85;;;13.90;99.90;;;14.20;69.29;101002.09;4847625;29;20068;-71
2021/05/12 04:07:48;;;;;;;17.33;6.72;;;13.80;99.90;;;14.17;69.36;101007.47;4847507;29;20500;-72
2021/05/12 04:10:20;;;;;;;14.40;6.40;;;13.80;99.90;;;14.10;69.26;101004.94;4847734;29;20082;-70
2021/05/12 04:12:50;;;;;;;18.75;6.82;;;13.80;99.90;;;14.04;69.22;100999.72;4830944;29;20050;-70
2021/05/12 04:15:21;;;;;;;22.50;6.10;;;13.70;99.90;;;14.06;69.30;101005.88;4844096;29;20110;-70
2021/05/12 04:17:48;;;;;;;;;;;13.70;99.90;;;14.10;69.08;101004.94;4828551;29;20569;-70
2021/05/12 04:20:20;;;;;;;19.45;6.20;;;13.70;99.90;;;14.10;69.17;101012.91;4844350;29;20455;-67
2021/05/12 04:22:48;;;;;;;19.05;5.47;;;13.70;99.90;;;14.10;69.04;101011.13;4844638;29;20069;-73
2021/05/12 04:25:21;;;;;;;20.77;6.75;;;13.70;99.90;;;14.08;69.21;101012.06;4828012;29;20129;-71
2021/05/12 04:27:50;;;;;;;15.70;5.60;;;13.70;99.90;;;14.17;69.04;101012.78;4844415;29;20418;-71
2021/05/12 04:30:20;;;;;;;21.90;6.97;;;13.80;99.90;;;14.17;68.90;101011.91;4844393;29;20094;-70
2021/05/12 04:32:49;;;;;;;18.95;6.00;;;13.70;99.90;;;14.22;68.72;101007.41;4844263;29;20059;-70
2021/05/12 04:35:20;;;;;;;18.65;5.43;;;13.80;99.90;;;14.22;68.68;101004.72;4844408;29;20053;-71
2021/05/12 04:37:49;;;;;;;18.73;5.85;;;13.80;99.90;;;14.24;68.83;101008.25;4844398;29;20053;-70
2021/05/12 04:40:18;;;;;;;17.50;6.10;;;13.90;99.90;;;14.31;68.79;101012.59;4844493;29;20441;-76
2021/05/12 04:42:49;;;;;;;18.52;6.57;;;13.90;99.90;;;14.34;68.91;101020.53;4827481;29;20290;-73
2021/05/12 04:45:19;;;;;;;19.33;5.85;;;14.00;99.90;;;14.37;68.47;101023.13;4843955;29;20073;-72
2021/05/12 04:47:55;;;;;;;25.25;6.25;;;14.00;99.90;;;14.34;68.65;101012.53;4844431;29;20066;-70
2021/05/12 04:50:28;;;;;;;16.30;5.55;;;14.00;99.90;;;14.43;68.58;101015.03;4827561;29;20054;-77
2021/05/12 04:52:59;;;;;;;21.02;6.68;;;14.10;99.90;;;14.45;68.64;101007.91;4844041;29;20077;-73
2021/05/12 04:55:28;;;;;;;16.52;6.18;;;14.10;99.90;;;14.46;68.52;100999.88;4827251;29;20049;-73
2021/05/12 04:57:56;;;;;;;21.83;6.45;;;14.10;99.90;;;14.48;68.76;101012.31;4843703;29;20096;-73
2021/05/12 05:00:26;;;;;;;21.92;6.82;;;14.20;99.90;;;14.46;68.82;101018.50;4844017;29;20045;-73
2021/05/12 05:02:55;;;;;;;21.05;6.15;;;14.20;99.90;;;14.38;68.77;100993.81;4843773;29;20462;-73
2021/05/12 05:05:24;;;;;;;17.55;5.65;;;14.20;99.90;;;14.62;68.56;101012.91;4843547;29;20137;-73
2021/05/12 05:07:53;;;;;;;20.50;5.85;;;14.30;99.90;;;14.54;68.40;100991.75;4843680;29;20061;-73
2021/05/12 05:10:25;;;;;;;20.52;6.82;;;14.30;99.90;;;14.75;68.27;101019.78;4843533;29;20117;-73
2021/05/12 05:12:52;;;;;;;;;;;14.40;99.90;;;14.79;68.23;101013.50;4844096;29;20050;-73
2021/05/12 05:15:20;;;;;;;21.50;5.88;;;14.50;99.90;;;14.88;68.36;101022.19;4843658;29;19988;-73
2021/05/12 05:17:50;;;;;;;17.38;5.97;;;14.50;99.90;;;14.97;68.02;101021.97;4843588;29;20062;-73
2021/05/12 05:20:19;;;;;;;25.50;6.75;;;14.60;99.90;;;15.06;67.66;101031.59;4843435;29;20053;-73
2021/05/12 05:22:47;;;;;;;21.52;6.80;;;14.70;99.90;;;15.13;67.25;101027.88;4843520;29;20046;-73
2021/05/12 05:25:16;;;;;;;24.90;5.85;;;14.70;99.90;;;15.19;67.31;101025.09;4842569;29;20069;-73
2021/05/12 05:27:44;;;;;;;17.55;5.80;;;14.80;99.90;;;14.66;66.79;100909.00;4843426;29;20049;-73
2021/05/12 05:30:13;;;;;;;23.40;6.25;;;14.90;99.90;;;15.41;66.38;101026.38;4843278;29;20385;-74
2021/05/12 05:33:01;;;;;;;28.10;6.28;;;15.00;99.90;;;15.39;66.53;100997.09;4843560;29;20518;-74
2021/05/12 05:35:47;;;;;;;25.95;6.97;;;15.20;99.90;;;15.72;66.10;101042.59;4843472;29;20060;-74
2021/05/12 05:38:34;;;;;;;18.95;5.95;;;15.40;99.90;;;15.76;65.51;101044.28;4843283;29;20053;-73
2021/05/12 05:41:21;;;;;;;21.85;5.32;;;15.40;99.90;;;15.75;65.79;101038.13;4843134;29;20548;-74
2021/05/12 05:44:07;;;;;;;22.73;6.32;;;15.40;99.90;;;15.84;65.49;101037.88;4842872;29;20073;-74
2021/05/12 05:46:55;;;;;;;28.10;6.78;;;15.50;99.90;;;15.91;65.82;101038.63;4842994;29;20072;-74
2021/05/12 05:49:42;;;;;;;22.13;5.90;;;15.50;99.90;;;16.05;65.95;101033.81;4842955;29;20577;-74
2021/05/12 05:52:28;;;;;;;20.83;6.25;;;15.70;99.90;;;16.13;65.59;101031.84;4842840;29;20061;-74
2021/05/12 05:55:17;;;;;;;20.52;5.70;;;15.80;99.90;;;16.25;65.43;101032.44;4842656;29;20190;-74
2021/05/12 05:58:04;;;;;;;21.48;5.88;;;15.80;99.90;;;16.19;64.95;101013.91;4842799;29;20154;-74
2021/05/12 06:00:50;;;;;;;20.63;5.68;;;15.90;99.90;;;16.40;64.70;101039.16;4842865;29;20057;-74
2021/05/12 06:03:18;;;;;;;22.90;6.05;;;16.00;99.90;;;16.42;64.94;101032.00;4842427;29;20050;-74
2021/05/12 06:06:05;;;;;;;20.13;5.85;;;16.10;99.90;;;16.46;64.36;101025.66;4842762;29;20163;-74
2021/05/12 06:08:52;;;;;;;24.15;6.30;;;16.10;99.90;;;16.49;64.27;101035.44;4842882;29;20070;-74
2021/05/12 06:11:38;;;;;;;15.27;5.15;;;16.20;99.90;;;16.50;64.33;101048.75;4842861;29;20149;-74
2021/05/12 06:14:28;;;;;;;23.17;6.22;;;16.10;99.90;;;16.43;64.01;101036.44;4842643;29;20081;-74
2021/05/12 06:17:14;;;;;;;24.00;5.90;;;16.00;99.90;;;16.41;64.29;101043.63;4842870;29;20161;-74
2021/05/12 06:20:01;;;;;;;18.33;5.65;;;16.00;99.90;;;16.39;64.98;101048.13;4842844;29;20056;-74
2021/05/12 06:22:47;;;;;;;22.33;5.95;;;16.00;99.90;;;16.33;64.96;101050.94;4842388;29;20171;-74
2021/05/12 06:25:33;;;;;;;21.77;6.30;;;15.90;99.90;;;16.44;65.11;101050.66;4842571;29;20053;-74
2021/05/12 06:28:20;;;;;;;28.70;5.97;;;16.00;99.90;;;16.31;65.11;101049.22;4842251;29;20163;-74
2021/05/12 06:31:08;;;;;;;27.40;5.85;;;15.90;99.90;;;16.40;65.34;101040.97;4842229;29;20048;-74
2021/05/12 06:33:54;;;;;;;20.77;6.07;;;16.00;99.90;;;16.40;64.78;101043.63;4842147;29;20065;-74
2021/05/12 06:36:41;;;;;;;22.08;5.70;;;16.00;99.90;;;15.83;63.70;100972.09;4842073;29;20082;-74
2021/05/12 06:39:28;;;;;;;20.05;6.15;;;16.00;99.90;;;16.30;63.71;101048.31;4842463;29;20057;-74
2021/05/12 06:41:56;;;;;;;16.98;5.60;;;15.90;99.90;;;16.26;63.83;101041.31;4842013;29;20098;-74
2021/05/12 06:44:25;;;;;;;21.80;5.82;;;15.90;99.90;;;16.16;63.99;101042.47;4841828;29;20070;-74
2021/05/12 06:46:54;;;;;;;23.35;6.10;;;15.80;99.90;;;16.39;64.51;101041.88;4842371;29;20062;-74
2021/05/12 06:49:22;;;;;;;18.77;6.10;;;15.90;99.90;;;16.46;63.62;101046.16;4842206;29;20136;-74
2021/05/12 06:51:55;;;;;;;18.40;5.85;;;16.10;99.90;;;16.40;64.17;101048.97;4842111;29;20073;-74
2021/05/12 06:54:23;;;;;;;19.38;6.13;;;16.00;99.90;;;16.55;64.29;101044.16;4842078;29;20049;-74
2021/05/12 06:56:52;;;;;;;21.92;7.03;;;16.20;99.90;;;16.58;63.72;101053.88;4842276;29;20050;-74
2021/05/12 06:59:20;;;;;;;13.98;6.28;;;16.20;99.90;;;16.62;62.92;101053.78;4842133;29;20050;-74
2021/05/12 07:01:48;;;;;;;16.98;6.22;;;16.20;99.90;;;16.66;63.57;101055.44;4826073;29;20098;-74
2021/05/12 07:04:17;;;;;;;18.77;6.03;;;16.20;99.90;;;16.54;62.98;101052.22;4841905;29;20050;-74
2021/05/12 07:06:45;;;;;;;18.85;6.47;;;16.20;99.90;;;16.61;63.33;101048.44;4841877;29;20056;-74
2021/05/12 07:09:13;;;;;;;19.90;6.70;;;16.20;99.90;;;16.72;62.72;101046.38;4841663;29;20054;-74
2021/05/12 07:11:41;;;;;;;13.60;6.55;;;16.30;99.90;;;16.73;63.36;101046.34;4842013;29;20050;-74
2021/05/12 07:14:09;;;;;;;18.50;6.97;;;16.40;99.90;;;16.72;62.42;101041.94;4825576;29;20057;-73
2021/05/12 07:16:37;;;;;;;18.83;6.47;;;16.40;99.90;;;16.85;62.31;101039.78;4841792;29;20102;-73
2021/05/12 07:19:07;;;;;;;21.25;6.00;;;16.50;99.90;;;16.88;61.95;101048.59;4842083;29;20046;-73
2021/05/12 07:21:36;;;;;;;22.70;6.83;;;16.60;99.90;;;17.01;61.73;101041.13;4825398;29;20077;-73
2021/05/12 07:24:05;;;;;;;21.20;7.30;;;16.60;99.90;;;17.12;60.56;101045.25;4841807;29;20050;-74
2021/05/12 07:26:33;;;;;;;18.52;7.13;;;16.70;99.90;;;17.19;60.77;101040.59;4841643;29;20453;-74
2021/05/12 07:29:02;;;;;;;17.27;6.13;;;16.80;99.90;;;17.25;60.11;101045.75;4841845;29;20046;-75
2021/05/12 07:31:30;;;;;;;15.73;5.75;;;16.90;99.90;;;17.38;59.80;101038.28;4841595;29;20058;-73
2021/05/12 07:33:59;;;;;;;70.15;36.40;;;17.00;99.90;;;17.64;58.54;101039.28;4841551;29;20052;-71
2021/05/12 07:36:27;;;;;;;15.93;6.72;;;17.20;99.90;;;17.78;57.83;101046.88;4841728;29;20102;-71
2021/05/12 07:38:55;;;;;;;50.75;26.65;;;17.40;99.90;;;17.82;57.50;101043.19;4841564;29;20523;-71
2021/05/12 07:41:23;;;;;;;15.40;5.78;;;17.50;99.90;;;17.80;57.92;101020.94;4825365;29;20038;-75
2021/05/12 07:43:52;;;;;;;14.25;6.20;;;17.60;99.90;;;17.86;57.73;101044.84;4841478;29;20062;-69
2021/05/12 07:46:25;;;;;;;14.45;5.22;;;17.50;99.90;;;17.78;56.32;101045.09;4841630;29;20054;-73
2021/05/12 07:48:53;;;;;;;16.00;6.03;;;17.50;99.90;;;17.91;56.47;101056.28;4842372;29;20069;-74
2021/05/12 07:51:22;;;;;;;15.20;6.05;;;17.60;99.90;;;18.07;56.26;101057.53;4828473;29;20049;-74
2021/05/12 07:53:50;;;;;;;17.42;5.75;;;17.70;99.90;;;18.15;56.85;101051.94;4828575;29;20098;-74
2021/05/12 07:56:19;;;;;;;16.15;6.32;;;17.80;99.90;;;18.24;57.17;101032.88;4844936;29;20050;-73
2021/05/12 07:58:47;;;;;;;18.33;6.18;;;18.00;99.90;;;18.46;55.95;101060.75;4845189;29;20538;-73
2021/05/12 08:01:19;;;;;;;14.88;6.10;;;18.10;99.90;;;18.37;55.91;101056.53;4844831;29;20094;-74
2021/05/12 08:03:52;;;;;;;19.60;6.10;;;18.10;99.90;;;18.34;56.13;101045.06;4844674;29;20057;-73
2021/05/12 08:06:20;;;;;;;15.57;5.85;;;18.00;99.90;;;18.26;54.81;101037.28;4828315;29;20091;-74
2021/05/12 08:08:48;;;;;;;15.05;5.85;;;18.00;99.90;;;18.45;54.59;101069.69;4844844;29;20050;-74
2021/05/12 08:11:19;;;;;;;16.60;6.45;;;18.10;99.90;;;18.47;55.14;101066.06;4844568;29;20046;-74
2021/05/12 08:13:48;;;;;;;19.75;6.82;;;18.10;99.90;;;17.94;55.25;100971.38;4844548;29;20515;-74
2021/05/12 08:16:16;;;;;;;18.63;6.25;;;18.10;99.90;;;18.29;54.39;101052.38;4844527;29;20489;-74
2021/05/12 08:18:44;;;;;;;13.75;5.32;;;18.00;99.90;;;18.47;54.23;101058.00;4844369;29;20046;-74
2021/05/12 08:21:12;;;;;;;14.48;5.28;;;18.10;99.90;;;18.58;52.91;101066.56;4844497;29;20054;-75
2021/05/12 08:23:40;;;;;;;13.52;4.40;;;18.20;99.90;;;18.55;53.07;101064.00;4844504;29;20492;-74
2021/05/12 08:26:10;;;;;;;15.77;5.32;;;18.20;99.90;;;18.58;52.42;101069.22;4827934;29;20050;-75
2021/05/12 08:28:40;;;;;;;12.13;5.00;;;18.20;99.90;;;18.63;53.39;101075.34;4844484;29;20052;-75
2021/05/12 08:31:09;;;;;;;15.80;5.63;;;18.40;99.90;;;18.75;53.85;101071.34;4844259;29;20050;-74
2021/05/12 08:33:37;;;;;;;16.23;4.93;;;18.40;99.90;;;18.87;52.69;101070.94;4844142;29;20089;-74
2021/05/12 08:36:06;;;;;;;10.15;4.25;;;18.50;99.90;;;18.97;51.54;101068.81;4844323;29;20110;-74
2021/05/12 08:38:34;;;;;;;15.35;4.53;;;18.60;99.90;;;18.86;51.10;101075.41;4844442;29;20046;-74
2021/05/12 08:41:03;;;;;;;16.52;5.00;;;18.60;99.90;;;19.03;50.71;101057.88;4827581;29;20084;-74
2021/05/12 08:43:31;;;;;;;9.27;4.10;;;18.70;99.90;;;19.10;50.52;101062.94;4844327;29;20065;-74
2021/05/12 08:46:00;;;;;;;9.82;4.32;;;18.80;99.90;;;18.38;49.92;100967.22;4844102;29;20053;-74
2021/05/12 08:48:30;;;;;;;12.20;4.57;;;18.70;99.90;;;19.02;49.96;101083.78;4827477;29;20102;-73
2021/05/12 08:50:58;;;;;;;12.80;4.28;;;18.70;99.90;;;18.98;49.66;101057.13;4827431;29;20062;-73
2021/05/12 08:53:29;;;;;;;14.20;5.10;;;18.70;99.90;;;19.13;49.97;101080.72;4835745;29;20046;-73
2021/05/12 08:55:58;;;;;;;14.48;5.00;;;18.80;99.90;;;19.22;49.77;101078.56;4829018;29;20483;-72
2021/05/12 08:58:27;;;;;;;15.68;5.03;;;18.80;99.90;;;19.37;49.93;101082.53;4825783;29;20386;-73
2021/05/12 09:00:56;;;;;;;107.55;62.55;;;19.00;99.90;;;19.42;47.78;101069.81;4825173;29;20046;-74
2021/05/12 09:03:26;;;;;;;44.90;26.85;;;19.10;99.90;;;18.88;47.55;100977.03;4825590;29;20100;-70
2021/05/12 09:05:58;;;;;;;64.90;35.65;;;19.20;99.90;;;19.41;47.50;101049.31;4825250;29;20114;-75
2021/05/12 09:08:27;;;;;;;11.05;4.68;;;19.20;99.90;;;19.45;46.73;101075.09;4809238;29;20497;-76
2021/05/12 09:10:55;;;;;;;12.02;5.05;;;19.20;99.90;;;19.44;46.33;101070.63;4825312;29;20042;-74
2021/05/12 09:13:30;;;;;;;11.13;4.35;;;19.10;99.90;;;19.46;46.26;101076.81;4825204;29;20069;-76
2021/05/12 09:16:21;;;;;;;11.02;4.22;;;19.10;99.90;;;19.53;46.47;101067.63;4825221;29;20058;-75
2021/05/12 09:18:51;;;;;;;13.00;4.03;;;19.20;99.90;;;18.98;46.85;100974.91;4825619;29;20050;-69
2021/05/12 09:21:23;;;;;;;;;;;19.20;99.90;;;19.27;47.33;101067.69;4825608;29;20062;-75
2021/05/12 09:23:53;;;;;;;12.77;4.55;;;19.00;99.90;;;19.46;46.84;101071.47;4825197;29;20004;-76
2021/05/12 09:26:21;;;;;;;10.85;4.05;;;19.10;99.90;;;19.74;46.96;101074.88;4825154;29;20067;-75
2021/05/12 09:28:54;;;;;;;12.73;4.20;;;19.40;99.90;;;19.63;46.48;101066.31;4825240;29;20054;-74
2021/05/12 09:31:23;;;;;;;10.88;4.03;;;19.30;99.90;;;19.74;46.03;101066.81;4825104;29;20066;-74
2021/05/12 09:33:52;;;;;;;11.88;4.72;;;19.40;99.90;;;19.97;45.73;101071.25;4824823;29;20058;-73
2021/05/12 09:36:28;;;;;;;9.35;3.70;;;19.60;99.90;;;19.92;44.78;101046.41;4824853;29;20466;-73
2021/05/12 09:38:57;;;;;;;6.53;3.90;;;19.70;99.90;;;20.07;43.61;101069.97;4824957;29;20050;-73
2021/05/12 09:41:32;;;;;;;9.50;4.05;;;19.70;99.90;;;20.04;43.94;101060.22;4808313;29;20046;-73
2021/05/12 09:44:03;;;;;;;10.10;3.83;;;19.70;99.90;;;19.89;44.20;101065.31;4824618;29;20107;-73
2021/05/12 09:46:35;;;;;;;8.20;3.70;;;19.60;99.90;;;19.93;43.68;101051.72;4824734;29;20069;-73
2021/05/12 09:49:14;;;;;;;9.23;3.85;;;19.60;99.90;;;19.85;43.66;101055.63;4824859;29;20401;-73
2021/05/12 09:51:46;;;;;;;8.35;3.45;;;19.50;99.90;;;19.50;43.76;100949.66;4824672;29;20046;-73
2021/05/12 09:54:18;;;;;;;6.82;3.10;;;19.70;99.90;;;19.74;43.56;100968.34;4824833;29;20081;-72
2021/05/12 09:56:54;;;;;;;8.95;4.00;;;20.00;99.90;;;20.07;43.60;101057.41;4824769;29;20058;-75
2021/05/12 09:59:24;;;;;;;7.97;3.65;;;19.80;99.90;;;20.22;43.92;101064.00;4824718;29;20058;-75
2021/05/12 10:01:55;;;;;;;12.10;3.90;;;19.90;99.90;;;20.27;43.84;101062.88;4824530;29;20253;-74
2021/05/12 10:04:35;;;;;;;7.90;3.95;;;19.90;99.90;;;20.21;42.73;101065.81;4824048;29;20110;-74
2021/05/12 10:07:18;;;;;;;9.32;3.75;;;19.90;99.90;;;20.15;41.67;101067.84;4824674;29;20131;-74
2021/05/12 10:09:48;;;;;;;11.30;4.03;;;19.90;99.90;;;20.40;41.68;101069.47;4824497;29;20050;-74
2021/05/12 10:12:18;;;;;;;9.00;3.58;;;20.00;99.90;;;20.42;42.65;101074.81;4823788;29;20046;-75
2021/05/12 10:14:50;;;;;;;9.88;3.95;;;20.10;99.90;;;20.59;41.72;101064.22;4824295;29;20046;-76
2021/05/12 10:17:20;;;;;;;8.88;4.20;;;20.20;99.90;;;20.70;42.62;101059.25;4807735;29;20062;-76
2021/05/12 10:19:55;;;;;;;10.82;4.05;;;20.30;99.90;;;20.67;42.93;101068.31;4824396;29;20055;-80
2021/05/12 10:22:24;;;;;;;10.27;4.28;;;20.40;99.90;;;20.58;42.13;101066.03;4807981;29;20054;-70
2021/05/12 10:24:53;;;;;;;11.80;4.40;;;20.30;99.90;;;20.53;43.23;101051.03;4824158;29;20046;-77